sensor_id;sensor_type;location;lat;lon;timestamp;temperature;humidity
67893;DHT22;54688;52.376;16.744;2022-08-19T00:01:38;22.3;59.6
67893;DHT22;54688;52.376;16.744;2022-08-19T00:04:42;22.3;59.6
67893;DHT22;54688;52.376;16.744;2022-08-19T00:07:44;22.3;59.5
67893;DHT22;54688;52.376;16.744;2022-08-19T00:10:47;22.3;59.5
67893;DHT22;54688;52.376;16.744;2022-08-19T00:13:49;22.4;59.5
67893;DHT22;54688;52.376;16.744;2022-08-19T00:16:51;22.4;59.4
67893;DHT22;54688;52.376;16.744;2022-08-19T00:19:54;22.4;59.4
67893;DHT22;54688;52.376;16.744;2022-08-19T00:22:56;22.4;59.4
67893;DHT22;54688;52.376;16.744;2022-08-19T00:25:58;22.5;59.4
67893;DHT22;54688;52.376;16.744;2022-08-19T00:29:00;22.4;59.2
67893;DHT22;54688;52.376;16.744;2022-08-19T00:32:02;22.5;59.3
67893;DHT22;54688;52.376;16.744;2022-08-19T00:35:06;22.5;59
67893;DHT22;54688;52.376;16.744;2022-08-19T00:38:10;22.5;59.1
67893;DHT22;54688;52.376;16.744;2022-08-19T00:41:12;22.4;59.1
67893;DHT22;54688;52.376;16.744;2022-08-19T00:44:17;22.5;59.2
67893;DHT22;54688;52.376;16.744;2022-08-19T00:47:21;22.5;59.3
67893;DHT22;54688;52.376;16.744;2022-08-19T00:50:23;22.5;59.2
67893;DHT22;54688;52.376;16.744;2022-08-19T00:53:26;22.4;59.2
67893;DHT22;54688;52.376;16.744;2022-08-19T00:56:30;22.4;59.3
67893;DHT22;54688;52.376;16.744;2022-08-19T00:59:33;22.4;59.1
67893;DHT22;54688;52.376;16.744;2022-08-19T01:02:37;22.3;60.1
67893;DHT22;54688;52.376;16.744;2022-08-19T01:05:39;22.4;59.5
67893;DHT22;54688;52.376;16.744;2022-08-19T01:08:43;22.3;59.6
67893;DHT22;54688;52.376;16.744;2022-08-19T01:11:46;22.3;59.7
67893;DHT22;54688;52.376;16.744;2022-08-19T01:14:49;22.3;59.6
67893;DHT22;54688;52.376;16.744;2022-08-19T01:17:52;22.3;59.8
67893;DHT22;54688;52.376;16.744;2022-08-19T01:20:58;22.2;60.2
67893;DHT22;54688;52.376;16.744;2022-08-19T01:24:04;22.2;60.6
67893;DHT22;54688;52.376;16.744;2022-08-19T01:27:06;22.1;61
67893;DHT22;54688;52.376;16.744;2022-08-19T01:30:10;22.1;61.4
67893;DHT22;54688;52.376;16.744;2022-08-19T01:33:13;22;61.3
67893;DHT22;54688;52.376;16.744;2022-08-19T01:36:24;21.9;61.8
67893;DHT22;54688;52.376;16.744;2022-08-19T01:39:28;21.8;61.7
67893;DHT22;54688;52.376;16.744;2022-08-19T01:42:30;21.8;62
67893;DHT22;54688;52.376;16.744;2022-08-19T01:45:33;21.8;62.5
67893;DHT22;54688;52.376;16.744;2022-08-19T01:48:36;21.7;62.6
67893;DHT22;54688;52.376;16.744;2022-08-19T01:51:40;21.8;62.7
67893;DHT22;54688;52.376;16.744;2022-08-19T01:54:42;21.7;62.3
67893;DHT22;54688;52.376;16.744;2022-08-19T01:57:46;21.7;62.5
67893;DHT22;54688;52.376;16.744;2022-08-19T02:00:53;21.6;62.8
67893;DHT22;54688;52.376;16.744;2022-08-19T02:03:55;21.6;63
67893;DHT22;54688;52.376;16.744;2022-08-19T02:06:57;21.6;63.1
67893;DHT22;54688;52.376;16.744;2022-08-19T02:10:00;21.5;63.8
67893;DHT22;54688;52.376;16.744;2022-08-19T02:13:05;21.4;63.4
67893;DHT22;54688;52.376;16.744;2022-08-19T02:16:07;21.4;63.8
67893;DHT22;54688;52.376;16.744;2022-08-19T02:19:10;21.3;64
67893;DHT22;54688;52.376;16.744;2022-08-19T02:22:12;21.3;63.7
67893;DHT22;54688;52.376;16.744;2022-08-19T02:25:14;21.2;64.4
67893;DHT22;54688;52.376;16.744;2022-08-19T02:28:16;21.1;64.8
67893;DHT22;54688;52.376;16.744;2022-08-19T02:31:19;21.1;64.7
67893;DHT22;54688;52.376;16.744;2022-08-19T02:34:23;21.1;64.8
67893;DHT22;54688;52.376;16.744;2022-08-19T02:37:26;21.1;65
67893;DHT22;54688;52.376;16.744;2022-08-19T02:40:27;21.1;65.1
67893;DHT22;54688;52.376;16.744;2022-08-19T02:43:31;21;65.7
67893;DHT22;54688;52.376;16.744;2022-08-19T02:46:34;21;65.5
67893;DHT22;54688;52.376;16.744;2022-08-19T02:49:36;21.1;65.7
67893;DHT22;54688;52.376;16.744;2022-08-19T02:52:38;21.1;65.4
67893;DHT22;54688;52.376;16.744;2022-08-19T02:55:44;21.1;65.2
67893;DHT22;54688;52.376;16.744;2022-08-19T02:58:47;21.1;65.2
67893;DHT22;54688;52.376;16.744;2022-08-19T03:01:49;21.1;65.2
67893;DHT22;54688;52.376;16.744;2022-08-19T03:04:51;21.1;65.5
67893;DHT22;54688;52.376;16.744;2022-08-19T03:07:54;21.1;65.1
67893;DHT22;54688;52.376;16.744;2022-08-19T03:10:56;21.2;65.3
67893;DHT22;54688;52.376;16.744;2022-08-19T03:14:00;21.1;65.8
67893;DHT22;54688;52.376;16.744;2022-08-19T03:17:03;21.1;65.1
67893;DHT22;54688;52.376;16.744;2022-08-19T03:20:05;21.1;65.7
67893;DHT22;54688;52.376;16.744;2022-08-19T03:23:08;21.1;65.6
67893;DHT22;54688;52.376;16.744;2022-08-19T03:26:10;21.1;65.4
67893;DHT22;54688;52.376;16.744;2022-08-19T03:29:13;21.1;66
67893;DHT22;54688;52.376;16.744;2022-08-19T03:32:15;21;66.1
67893;DHT22;54688;52.376;16.744;2022-08-19T03:35:17;21;66.2
67893;DHT22;54688;52.376;16.744;2022-08-19T03:38:19;21;66
67893;DHT22;54688;52.376;16.744;2022-08-19T03:41:22;21;65.9
67893;DHT22;54688;52.376;16.744;2022-08-19T03:44:26;20.9;66.3
67893;DHT22;54688;52.376;16.744;2022-08-19T03:47:28;20.8;65.7
67893;DHT22;54688;52.376;16.744;2022-08-19T03:50:30;20.8;66
67893;DHT22;54688;52.376;16.744;2022-08-19T03:53:32;20.8;66.4
67893;DHT22;54688;52.376;16.744;2022-08-19T03:56:37;20.7;66.7
67893;DHT22;54688;52.376;16.744;2022-08-19T03:59:40;20.7;66.6
67893;DHT22;54688;52.376;16.744;2022-08-19T04:02:42;20.6;67.9
67893;DHT22;54688;52.376;16.744;2022-08-19T04:05:44;20.6;67.7
67893;DHT22;54688;52.376;16.744;2022-08-19T04:08:47;20.5;68.2
67893;DHT22;54688;52.376;16.744;2022-08-19T04:11:52;20.5;68.3
67893;DHT22;54688;52.376;16.744;2022-08-19T04:14:57;20.5;68.3
67893;DHT22;54688;52.376;16.744;2022-08-19T04:17:59;20.5;68.2
67893;DHT22;54688;52.376;16.744;2022-08-19T04:21:00;20.4;68.4
67893;DHT22;54688;52.376;16.744;2022-08-19T04:24:03;20.4;68.4
67893;DHT22;54688;52.376;16.744;2022-08-19T04:27:06;20.4;68.3
67893;DHT22;54688;52.376;16.744;2022-08-19T04:30:09;20.5;68.4
67893;DHT22;54688;52.376;16.744;2022-08-19T04:33:12;20.5;68.1
67893;DHT22;54688;52.376;16.744;2022-08-19T04:36:16;20.5;68.9
67893;DHT22;54688;52.376;16.744;2022-08-19T04:39:21;20.5;68.1
67893;DHT22;54688;52.376;16.744;2022-08-19T04:42:24;20.6;68.3
67893;DHT22;54688;52.376;16.744;2022-08-19T04:45:27;20.6;68.2
67893;DHT22;54688;52.376;16.744;2022-08-19T04:48:29;20.6;68
67893;DHT22;54688;52.376;16.744;2022-08-19T04:51:31;20.6;68.1
67893;DHT22;54688;52.376;16.744;2022-08-19T04:54:34;20.7;67.8
67893;DHT22;54688;52.376;16.744;2022-08-19T04:57:36;20.6;67.6
67893;DHT22;54688;52.376;16.744;2022-08-19T05:00:38;20.7;67.8
67893;DHT22;54688;52.376;16.744;2022-08-19T05:03:41;20.8;67.5
67893;DHT22;54688;52.376;16.744;2022-08-19T05:06:44;20.8;67.5
67893;DHT22;54688;52.376;16.744;2022-08-19T05:09:47;20.8;67.4
67893;DHT22;54688;52.376;16.744;2022-08-19T05:12:49;20.9;67.9
67893;DHT22;54688;52.376;16.744;2022-08-19T05:15:53;20.8;67.2
67893;DHT22;54688;52.376;16.744;2022-08-19T05:18:57;20.8;66.9
67893;DHT22;54688;52.376;16.744;2022-08-19T05:21:59;20.8;67.3
67893;DHT22;54688;52.376;16.744;2022-08-19T05:25:03;20.8;67.3
67893;DHT22;54688;52.376;16.744;2022-08-19T05:28:08;20.8;67.3
67893;DHT22;54688;52.376;16.744;2022-08-19T05:31:10;20.9;67.3
67893;DHT22;54688;52.376;16.744;2022-08-19T05:34:12;20.9;67.3
67893;DHT22;54688;52.376;16.744;2022-08-19T05:37:14;20.9;66.9
67893;DHT22;54688;52.376;16.744;2022-08-19T05:40:16;21;66.8
67893;DHT22;54688;52.376;16.744;2022-08-19T05:43:18;21;66.7
67893;DHT22;54688;52.376;16.744;2022-08-19T05:46:22;21;66.7
67893;DHT22;54688;52.376;16.744;2022-08-19T05:49:25;21.1;67.1
67893;DHT22;54688;52.376;16.744;2022-08-19T05:52:28;21.1;66.9
67893;DHT22;54688;52.376;16.744;2022-08-19T05:55:30;21.2;66.5
67893;DHT22;54688;52.376;16.744;2022-08-19T05:58:32;21.2;66
67893;DHT22;54688;52.376;16.744;2022-08-19T06:01:34;21.3;66.2
67893;DHT22;54688;52.376;16.744;2022-08-19T06:04:37;21.3;67
67893;DHT22;54688;52.376;16.744;2022-08-19T06:07:39;21.4;66.1
67893;DHT22;54688;52.376;16.744;2022-08-19T06:10:41;21.5;65.2
67893;DHT22;54688;52.376;16.744;2022-08-19T06:13:45;21.5;65.7
67893;DHT22;54688;52.376;16.744;2022-08-19T06:16:50;21.5;65.7
67893;DHT22;54688;52.376;16.744;2022-08-19T06:19:53;21.6;65
67893;DHT22;54688;52.376;16.744;2022-08-19T06:22:55;21.6;64.7
67893;DHT22;54688;52.376;16.744;2022-08-19T06:25:57;21.8;64.9
67893;DHT22;54688;52.376;16.744;2022-08-19T06:28:59;21.8;64.3
67893;DHT22;54688;52.376;16.744;2022-08-19T06:32:02;21.8;64.6
67893;DHT22;54688;52.376;16.744;2022-08-19T06:35:05;21.9;64.6
67893;DHT22;54688;52.376;16.744;2022-08-19T06:38:07;22;65
67893;DHT22;54688;52.376;16.744;2022-08-19T06:41:11;22;64.4
67893;DHT22;54688;52.376;16.744;2022-08-19T06:44:15;22.2;64.2
67893;DHT22;54688;52.376;16.744;2022-08-19T06:47:22;22.3;63.4
67893;DHT22;54688;52.376;16.744;2022-08-19T06:50:24;22.4;63.4
67893;DHT22;54688;52.376;16.744;2022-08-19T06:53:27;22.5;62.7
67893;DHT22;54688;52.376;16.744;2022-08-19T06:56:29;22.6;63.1
67893;DHT22;54688;52.376;16.744;2022-08-19T06:59:33;22.6;62.4
67893;DHT22;54688;52.376;16.744;2022-08-19T07:02:35;22.7;62.5
67893;DHT22;54688;52.376;16.744;2022-08-19T07:05:38;22.7;62.5
67893;DHT22;54688;52.376;16.744;2022-08-19T07:08:43;22.8;61.3
67893;DHT22;54688;52.376;16.744;2022-08-19T07:11:46;22.9;61.2
67893;DHT22;54688;52.376;16.744;2022-08-19T07:14:50;23;61.7
67893;DHT22;54688;52.376;16.744;2022-08-19T07:17:55;23;61.7
67893;DHT22;54688;52.376;16.744;2022-08-19T07:21:01;23.1;61.2
67893;DHT22;54688;52.376;16.744;2022-08-19T07:24:04;23.2;59.6
67893;DHT22;54688;52.376;16.744;2022-08-19T07:27:07;23.2;60.1
67893;DHT22;54688;52.376;16.744;2022-08-19T07:30:09;23.3;60.7
67893;DHT22;54688;52.376;16.744;2022-08-19T07:33:12;23.4;60.2
67893;DHT22;54688;52.376;16.744;2022-08-19T07:36:16;23.3;60.1
67893;DHT22;54688;52.376;16.744;2022-08-19T07:39:22;23.5;60.5
67893;DHT22;54688;52.376;16.744;2022-08-19T07:42:25;23.6;60.5
67893;DHT22;54688;52.376;16.744;2022-08-19T07:45:28;23.6;59.8
67893;DHT22;54688;52.376;16.744;2022-08-19T07:48:30;23.7;60
67893;DHT22;54688;52.376;16.744;2022-08-19T07:51:33;23.9;58.6
67893;DHT22;54688;52.376;16.744;2022-08-19T07:54:36;24;58.8
67893;DHT22;54688;52.376;16.744;2022-08-19T07:57:41;24.1;58.8
67893;DHT22;54688;52.376;16.744;2022-08-19T08:00:43;24.2;59.1
67893;DHT22;54688;52.376;16.744;2022-08-19T08:03:48;24.3;58.5
67893;DHT22;54688;52.376;16.744;2022-08-19T08:06:53;24.4;58
67893;DHT22;54688;52.376;16.744;2022-08-19T08:09:55;24.5;57.7
67893;DHT22;54688;52.376;16.744;2022-08-19T08:12:57;24.6;58.1
67893;DHT22;54688;52.376;16.744;2022-08-19T08:15:59;24.8;56.5
67893;DHT22;54688;52.376;16.744;2022-08-19T08:19:03;24.8;56.6
67893;DHT22;54688;52.376;16.744;2022-08-19T08:22:06;24.9;55.5
67893;DHT22;54688;52.376;16.744;2022-08-19T08:25:09;25.1;55
67893;DHT22;54688;52.376;16.744;2022-08-19T08:28:13;25.3;54
67893;DHT22;54688;52.376;16.744;2022-08-19T08:31:16;25.6;53.8
67893;DHT22;54688;52.376;16.744;2022-08-19T08:34:20;25.8;52.8
67893;DHT22;54688;52.376;16.744;2022-08-19T08:37:22;26.1;52.6
67893;DHT22;54688;52.376;16.744;2022-08-19T08:40:27;26.2;52
67893;DHT22;54688;52.376;16.744;2022-08-19T08:43:32;26.3;51
67893;DHT22;54688;52.376;16.744;2022-08-19T08:46:36;26.4;50.9
67893;DHT22;54688;52.376;16.744;2022-08-19T08:49:43;26.5;51.5
67893;DHT22;54688;52.376;16.744;2022-08-19T08:52:50;26.6;51.3
67893;DHT22;54688;52.376;16.744;2022-08-19T08:58:56;26.6;50
67893;DHT22;54688;52.376;16.744;2022-08-19T09:02:02;26.6;50.7
67893;DHT22;54688;52.376;16.744;2022-08-19T09:05:05;26.7;50.7
67893;DHT22;54688;52.376;16.744;2022-08-19T09:08:08;26.7;50.3
67893;DHT22;54688;52.376;16.744;2022-08-19T09:11:19;26.8;50.1
67893;DHT22;54688;52.376;16.744;2022-08-19T09:14:32;26.9;50.3
67893;DHT22;54688;52.376;16.744;2022-08-19T09:17:37;27;49.7
67893;DHT22;54688;52.376;16.744;2022-08-19T09:20:41;27;49
67893;DHT22;54688;52.376;16.744;2022-08-19T09:23:44;27.1;49.6
67893;DHT22;54688;52.376;16.744;2022-08-19T09:26:46;27.3;49.4
67893;DHT22;54688;52.376;16.744;2022-08-19T09:29:49;27.5;50.2
67893;DHT22;54688;52.376;16.744;2022-08-19T09:32:51;27.6;48.6
67893;DHT22;54688;52.376;16.744;2022-08-19T09:36:04;27.7;47.7
67893;DHT22;54688;52.376;16.744;2022-08-19T09:39:08;27.7;48.2
67893;DHT22;54688;52.376;16.744;2022-08-19T09:42:10;27.8;48.3
67893;DHT22;54688;52.376;16.744;2022-08-19T09:45:12;27.9;47.7
67893;DHT22;54688;52.376;16.744;2022-08-19T09:48:14;27.9;48
67893;DHT22;54688;52.376;16.744;2022-08-19T09:51:18;28;46.9
67893;DHT22;54688;52.376;16.744;2022-08-19T09:54:22;28;46.6
67893;DHT22;54688;52.376;16.744;2022-08-19T09:57:25;28;46.6
67893;DHT22;54688;52.376;16.744;2022-08-19T10:00:27;28.2;46.4
67893;DHT22;54688;52.376;16.744;2022-08-19T10:03:30;28.2;44.4
67893;DHT22;54688;52.376;16.744;2022-08-19T10:06:34;28.2;45.1
67893;DHT22;54688;52.376;16.744;2022-08-19T10:09:38;28.2;44.8
67893;DHT22;54688;52.376;16.744;2022-08-19T10:12:40;28.3;45.3
67893;DHT22;54688;52.376;16.744;2022-08-19T10:15:41;28.3;46.3
67893;DHT22;54688;52.376;16.744;2022-08-19T10:18:44;28.4;45.2
67893;DHT22;54688;52.376;16.744;2022-08-19T10:21:47;28.4;44.5
67893;DHT22;54688;52.376;16.744;2022-08-19T10:24:49;28.3;44.2
67893;DHT22;54688;52.376;16.744;2022-08-19T10:27:51;28.4;44.8
67893;DHT22;54688;52.376;16.744;2022-08-19T10:30:53;28.6;45.2
67893;DHT22;54688;52.376;16.744;2022-08-19T10:33:55;28.8;44.8
67893;DHT22;54688;52.376;16.744;2022-08-19T10:36:58;28.9;44.5
67893;DHT22;54688;52.376;16.744;2022-08-19T10:40:02;29.1;43.4
67893;DHT22;54688;52.376;16.744;2022-08-19T10:43:06;29.1;43.8
67893;DHT22;54688;52.376;16.744;2022-08-19T10:46:08;29.1;43.4
67893;DHT22;54688;52.376;16.744;2022-08-19T10:49:11;29;42.2
67893;DHT22;54688;52.376;16.744;2022-08-19T10:52:14;29;43.1
67893;DHT22;54688;52.376;16.744;2022-08-19T10:55:18;29.1;43.8
67893;DHT22;54688;52.376;16.744;2022-08-19T10:58:21;29.3;42.5
67893;DHT22;54688;52.376;16.744;2022-08-19T11:01:24;29.3;41.1
67893;DHT22;54688;52.376;16.744;2022-08-19T11:04:25;29.4;42.1
67893;DHT22;54688;52.376;16.744;2022-08-19T11:07:28;29.5;42.5
67893;DHT22;54688;52.376;16.744;2022-08-19T11:10:30;29.7;41.8
67893;DHT22;54688;52.376;16.744;2022-08-19T11:13:33;29.8;41.3
67893;DHT22;54688;52.376;16.744;2022-08-19T11:16:36;30;40.3
67893;DHT22;54688;52.376;16.744;2022-08-19T11:19:39;30;39.7
67893;DHT22;54688;52.376;16.744;2022-08-19T11:22:42;30;40.5
67893;DHT22;54688;52.376;16.744;2022-08-19T11:25:44;30.1;41.1
67893;DHT22;54688;52.376;16.744;2022-08-19T11:28:46;30.4;39.4
67893;DHT22;54688;52.376;16.744;2022-08-19T11:31:49;30.5;38.2
67893;DHT22;54688;52.376;16.744;2022-08-19T11:34:51;30.5;38.2
67893;DHT22;54688;52.376;16.744;2022-08-19T11:37:54;30.6;38.5
67893;DHT22;54688;52.376;16.744;2022-08-19T11:40:57;30.6;39.2
67893;DHT22;54688;52.376;16.744;2022-08-19T11:44:00;30.6;38.4
67893;DHT22;54688;52.376;16.744;2022-08-19T11:47:04;30.8;39.7
67893;DHT22;54688;52.376;16.744;2022-08-19T11:50:06;30.8;37.8
67893;DHT22;54688;52.376;16.744;2022-08-19T11:53:09;30.8;38
67893;DHT22;54688;52.376;16.744;2022-08-19T11:56:11;30.9;37.3
67893;DHT22;54688;52.376;16.744;2022-08-19T11:59:13;30.9;38.3
67893;DHT22;54688;52.376;16.744;2022-08-19T12:02:16;30.9;38.2
67893;DHT22;54688;52.376;16.744;2022-08-19T12:05:18;31;38
67893;DHT22;54688;52.376;16.744;2022-08-19T12:08:22;31.2;38.6
67893;DHT22;54688;52.376;16.744;2022-08-19T12:11:24;31.3;38.1
67893;DHT22;54688;52.376;16.744;2022-08-19T12:14:28;31.3;38
67893;DHT22;54688;52.376;16.744;2022-08-19T12:17:30;31.2;38.4
67893;DHT22;54688;52.376;16.744;2022-08-19T12:20:34;31.1;38.4
67893;DHT22;54688;52.376;16.744;2022-08-19T12:23:38;30.9;38.6
67893;DHT22;54688;52.376;16.744;2022-08-19T12:26:40;30.8;40.1
67893;DHT22;54688;52.376;16.744;2022-08-19T12:29:42;30.7;39.2
67893;DHT22;54688;52.376;16.744;2022-08-19T12:32:44;30.6;40.2
67893;DHT22;54688;52.376;16.744;2022-08-19T12:35:46;30.5;40
67893;DHT22;54688;52.376;16.744;2022-08-19T12:38:48;30.5;38.5
67893;DHT22;54688;52.376;16.744;2022-08-19T12:41:50;30.5;39.4
67893;DHT22;54688;52.376;16.744;2022-08-19T12:44:52;30.5;39.5
67893;DHT22;54688;52.376;16.744;2022-08-19T12:47:54;30.5;39.5
67893;DHT22;54688;52.376;16.744;2022-08-19T12:50:56;30.5;39.3
67893;DHT22;54688;52.376;16.744;2022-08-19T12:53:58;30.3;38.9
67893;DHT22;54688;52.376;16.744;2022-08-19T12:57:00;30.2;39.5
67893;DHT22;54688;52.376;16.744;2022-08-19T13:00:05;30.1;39.3
67893;DHT22;54688;52.376;16.744;2022-08-19T13:03:09;29.9;39.4
67893;DHT22;54688;52.376;16.744;2022-08-19T13:06:11;29.9;40.1
67893;DHT22;54688;52.376;16.744;2022-08-19T13:09:13;29.9;40.3
67893;DHT22;54688;52.376;16.744;2022-08-19T13:12:16;30;40.4
67893;DHT22;54688;52.376;16.744;2022-08-19T13:15:19;30.2;39.7
67893;DHT22;54688;52.376;16.744;2022-08-19T13:18:23;30.3;39.1
67893;DHT22;54688;52.376;16.744;2022-08-19T13:21:26;30.3;39.2
67893;DHT22;54688;52.376;16.744;2022-08-19T13:24:29;30.4;39.3
67893;DHT22;54688;52.376;16.744;2022-08-19T13:27:32;30.6;38.8
67893;DHT22;54688;52.376;16.744;2022-08-19T13:30:35;30.7;38.8
67893;DHT22;54688;52.376;16.744;2022-08-19T13:33:37;30.7;38.2
67893;DHT22;54688;52.376;16.744;2022-08-19T13:36:41;30.7;38.8
67893;DHT22;54688;52.376;16.744;2022-08-19T13:39:42;30.8;38.6
67893;DHT22;54688;52.376;16.744;2022-08-19T13:42:45;30.7;38.5
67893;DHT22;54688;52.376;16.744;2022-08-19T13:45:50;30.8;38
67893;DHT22;54688;52.376;16.744;2022-08-19T13:48:53;30.9;38.6
67893;DHT22;54688;52.376;16.744;2022-08-19T13:51:55;31;37.7
67893;DHT22;54688;52.376;16.744;2022-08-19T13:54:57;30.9;37.7
67893;DHT22;54688;52.376;16.744;2022-08-19T13:58:00;30.9;38.3
67893;DHT22;54688;52.376;16.744;2022-08-19T14:01:03;31.1;38.8
67893;DHT22;54688;52.376;16.744;2022-08-19T14:04:06;31.3;37.8
67893;DHT22;54688;52.376;16.744;2022-08-19T14:07:09;31.5;37.5
67893;DHT22;54688;52.376;16.744;2022-08-19T14:10:12;31.6;37.1
67893;DHT22;54688;52.376;16.744;2022-08-19T14:13:15;31.6;37.4
67893;DHT22;54688;52.376;16.744;2022-08-19T14:16:18;31.6;37.9
67893;DHT22;54688;52.376;16.744;2022-08-19T14:19:20;31.6;36.8
67893;DHT22;54688;52.376;16.744;2022-08-19T14:22:22;31.6;36.5
67893;DHT22;54688;52.376;16.744;2022-08-19T14:25:26;31.5;37.5
67893;DHT22;54688;52.376;16.744;2022-08-19T14:28:30;31.5;38.1
67893;DHT22;54688;52.376;16.744;2022-08-19T14:31:33;31.5;37.8
67893;DHT22;54688;52.376;16.744;2022-08-19T14:34:34;31.4;37.5
67893;DHT22;54688;52.376;16.744;2022-08-19T14:37:37;31.3;37.3
67893;DHT22;54688;52.376;16.744;2022-08-19T14:40:39;31.2;37.8
67893;DHT22;54688;52.376;16.744;2022-08-19T14:43:41;31;37.6
67893;DHT22;54688;52.376;16.744;2022-08-19T14:46:44;30.9;38
67893;DHT22;54688;52.376;16.744;2022-08-19T14:49:46;30.9;38.5
67893;DHT22;54688;52.376;16.744;2022-08-19T14:52:48;30.9;37.8
67893;DHT22;54688;52.376;16.744;2022-08-19T14:55:51;30.9;38.5
67893;DHT22;54688;52.376;16.744;2022-08-19T14:58:53;30.8;37.8
67893;DHT22;54688;52.376;16.744;2022-08-19T15:01:55;30.6;38
67893;DHT22;54688;52.376;16.744;2022-08-19T15:04:58;30.4;38.6
67893;DHT22;54688;52.376;16.744;2022-08-19T15:08:02;30.3;39
67893;DHT22;54688;52.376;16.744;2022-08-19T15:11:07;30;39.5
67893;DHT22;54688;52.376;16.744;2022-08-19T15:14:10;29.8;40
67893;DHT22;54688;52.376;16.744;2022-08-19T15:17:11;29.6;39.9
67893;DHT22;54688;52.376;16.744;2022-08-19T15:20:14;29.4;40.2
67893;DHT22;54688;52.376;16.744;2022-08-19T15:23:19;29.3;41
67893;DHT22;54688;52.376;16.744;2022-08-19T15:26:24;29.1;41.1
67893;DHT22;54688;52.376;16.744;2022-08-19T15:29:26;29;41.7
67893;DHT22;54688;52.376;16.744;2022-08-19T15:32:28;28.9;42.1
67893;DHT22;54688;52.376;16.744;2022-08-19T15:35:30;28.8;42.3
67893;DHT22;54688;52.376;16.744;2022-08-19T15:38:33;28.8;42.1
67893;DHT22;54688;52.376;16.744;2022-08-19T15:41:36;28.7;42.5
67893;DHT22;54688;52.376;16.744;2022-08-19T15:44:37;28.5;42.5
67893;DHT22;54688;52.376;16.744;2022-08-19T15:47:40;28.4;42.9
67893;DHT22;54688;52.376;16.744;2022-08-19T15:50:42;28.3;43
67893;DHT22;54688;52.376;16.744;2022-08-19T15:53:44;28.1;43.4
67893;DHT22;54688;52.376;16.744;2022-08-19T15:56:48;28;43.3
67893;DHT22;54688;52.376;16.744;2022-08-19T15:59:50;28;43.8
67893;DHT22;54688;52.376;16.744;2022-08-19T16:02:56;28;44.2
67893;DHT22;54688;52.376;16.744;2022-08-19T16:05:59;27.9;44.2
67893;DHT22;54688;52.376;16.744;2022-08-19T16:09:02;27.8;44.5
67893;DHT22;54688;52.376;16.744;2022-08-19T16:12:05;27.8;44.5
67893;DHT22;54688;52.376;16.744;2022-08-19T16:15:08;27.8;44
67893;DHT22;54688;52.376;16.744;2022-08-19T16:18:10;27.7;44.8
67893;DHT22;54688;52.376;16.744;2022-08-19T16:21:13;27.7;44.9
67893;DHT22;54688;52.376;16.744;2022-08-19T16:24:16;27.6;46
67893;DHT22;54688;52.376;16.744;2022-08-19T16:27:27;27.5;45.6
67893;DHT22;54688;52.376;16.744;2022-08-19T16:30:29;27.4;46
67893;DHT22;54688;52.376;16.744;2022-08-19T16:33:31;27.3;46.2
67893;DHT22;54688;52.376;16.744;2022-08-19T16:36:33;27.2;46.5
67893;DHT22;54688;52.376;16.744;2022-08-19T16:39:35;27.1;47.2
67893;DHT22;54688;52.376;16.744;2022-08-19T16:42:38;27;46.5
67893;DHT22;54688;52.376;16.744;2022-08-19T16:45:41;26.9;47
67893;DHT22;54688;52.376;16.744;2022-08-19T16:48:43;26.8;46.8
67893;DHT22;54688;52.376;16.744;2022-08-19T16:51:45;26.7;46.8
67893;DHT22;54688;52.376;16.744;2022-08-19T16:54:47;26.5;47
67893;DHT22;54688;52.376;16.744;2022-08-19T16:57:49;26.4;46.8
67893;DHT22;54688;52.376;16.744;2022-08-19T17:00:51;26.3;49.1
67893;DHT22;54688;52.376;16.744;2022-08-19T17:03:54;26.3;48.2
67893;DHT22;54688;52.376;16.744;2022-08-19T17:06:57;26.2;48.2
67893;DHT22;54688;52.376;16.744;2022-08-19T17:09:59;26.1;48.6
67893;DHT22;54688;52.376;16.744;2022-08-19T17:13:03;26;49.6
67893;DHT22;54688;52.376;16.744;2022-08-19T17:16:06;26;50.2
67893;DHT22;54688;52.376;16.744;2022-08-19T17:19:07;25.9;50.7
67893;DHT22;54688;52.376;16.744;2022-08-19T17:22:09;25.9;50.2
67893;DHT22;54688;52.376;16.744;2022-08-19T17:25:11;25.8;50.6
67893;DHT22;54688;52.376;16.744;2022-08-19T17:28:16;25.7;50.7
67893;DHT22;54688;52.376;16.744;2022-08-19T17:31:20;25.6;51
67893;DHT22;54688;52.376;16.744;2022-08-19T17:34:24;25.6;50.8
67893;DHT22;54688;52.376;16.744;2022-08-19T17:37:26;25.5;51.1
67893;DHT22;54688;52.376;16.744;2022-08-19T17:40:28;25.5;50.8
67893;DHT22;54688;52.376;16.744;2022-08-19T17:43:30;25.4;51
67893;DHT22;54688;52.376;16.744;2022-08-19T17:46:33;25.3;51.3
67893;DHT22;54688;52.376;16.744;2022-08-19T17:49:35;25.3;52.2
67893;DHT22;54688;52.376;16.744;2022-08-19T17:52:36;25.2;51.6
67893;DHT22;54688;52.376;16.744;2022-08-19T17:55:39;25.2;51.7
67893;DHT22;54688;52.376;16.744;2022-08-19T17:58:41;25.1;51.8
67893;DHT22;54688;52.376;16.744;2022-08-19T18:01:43;25.1;51
67893;DHT22;54688;52.376;16.744;2022-08-19T18:04:46;25.1;53
67893;DHT22;54688;52.376;16.744;2022-08-19T18:07:49;25;52.4
67893;DHT22;54688;52.376;16.744;2022-08-19T18:10:52;25;52.8
67893;DHT22;54688;52.376;16.744;2022-08-19T18:13:53;24.9;52.9
67893;DHT22;54688;52.376;16.744;2022-08-19T18:16:56;24.8;53.1
67893;DHT22;54688;52.376;16.744;2022-08-19T18:19:58;24.8;53.4
67893;DHT22;54688;52.376;16.744;2022-08-19T18:23:00;24.8;53.7
67893;DHT22;54688;52.376;16.744;2022-08-19T18:26:03;24.7;53.3
67893;DHT22;54688;52.376;16.744;2022-08-19T18:29:07;24.6;53.4
67893;DHT22;54688;52.376;16.744;2022-08-19T18:32:10;24.6;53.2
67893;DHT22;54688;52.376;16.744;2022-08-19T18:35:13;24.5;54.3
67893;DHT22;54688;52.376;16.744;2022-08-19T18:38:18;24.5;53.6
67893;DHT22;54688;52.376;16.744;2022-08-19T18:41:22;24.5;54.9
67893;DHT22;54688;52.376;16.744;2022-08-19T18:44:24;24.4;54.8
67893;DHT22;54688;52.376;16.744;2022-08-19T18:47:26;24.3;55.4
67893;DHT22;54688;52.376;16.744;2022-08-19T18:50:28;24.2;55.6
67893;DHT22;54688;52.376;16.744;2022-08-19T18:53:31;24.1;55.9
67893;DHT22;54688;52.376;16.744;2022-08-19T18:56:35;24.2;56.3
67893;DHT22;54688;52.376;16.744;2022-08-19T18:59:37;24.1;56
67893;DHT22;54688;52.376;16.744;2022-08-19T19:02:39;24.1;56.3
67893;DHT22;54688;52.376;16.744;2022-08-19T19:05:41;24.1;56.3
67893;DHT22;54688;52.376;16.744;2022-08-19T19:08:42;24;56.3
67893;DHT22;54688;52.376;16.744;2022-08-19T19:11:45;24.1;56.7
67893;DHT22;54688;52.376;16.744;2022-08-19T19:14:49;24.1;56.7
67893;DHT22;54688;52.376;16.744;2022-08-19T19:17:51;24;56.8
67893;DHT22;54688;52.376;16.744;2022-08-19T19:20:53;24;57
67893;DHT22;54688;52.376;16.744;2022-08-19T19:23:56;23.9;57.1
67893;DHT22;54688;52.376;16.744;2022-08-19T19:27:00;23.8;57.1
67893;DHT22;54688;52.376;16.744;2022-08-19T19:30:05;23.8;57.2
67893;DHT22;54688;52.376;16.744;2022-08-19T19:33:08;23.9;58
67893;DHT22;54688;52.376;16.744;2022-08-19T19:36:10;23.8;57.7
67893;DHT22;54688;52.376;16.744;2022-08-19T19:39:12;23.8;57.7
67893;DHT22;54688;52.376;16.744;2022-08-19T19:42:16;23.8;58.3
67893;DHT22;54688;52.376;16.744;2022-08-19T19:45:20;23.8;57.6